sensor_id;sensor_type;location;lat;lon;timestamp;P1;durP1;ratioP1;P2;durP2;ratioP2
2019;SDS011;1014;51.960;8.542;2023-08-06T00:02:20;26.10;;;24.70;;
2019;SDS011;1014;51.960;8.542;2023-08-06T00:04:52;25.87;;;24.50;;
2019;SDS011;1014;51.960;8.542;2023-08-06T00:07:26;26.60;;;24.90;;
2019;SDS011;1014;51.960;8.542;2023-08-06T00:09:53;27.37;;;25.77;;
2019;SDS011;1014;51.960;8.542;2023-08-06T00:12:30;26.43;;;24.73;;
2019;SDS011;1014;51.960;8.542;2023-08-06T00:14:57;27.80;;;26.30;;
2019;SDS011;1014;51.960;8.542;2023-08-06T00:17:28;27.00;;;25.60;;
2019;SDS011;1014;51.960;8.542;2023-08-06T00:19:56;26.83;;;25.40;;
2019;SDS011;1014;51.960;8.542;2023-08-06T00:22:30;27.43;;;25.63;;
2019;SDS011;1014;51.960;8.542;2023-08-06T00:24:57;26.40;;;24.90;;
2019;SDS011;1014;51.960;8.542;2023-08-06T00:27:24;25.97;;;24.50;;
2019;SDS011;1014;51.960;8.542;2023-08-06T00:29:51;26.37;;;24.97;;
2019;SDS011;1014;51.960;8.542;2023-08-06T00:32:21;26.50;;;25.00;;
2019;SDS011;1014;51.960;8.542;2023-08-06T00:34:57;25.53;;;24.23;;
2019;SDS011;1014;51.960;8.542;2023-08-06T00:37:28;26.03;;;24.63;;
2019;SDS011;1014;51.960;8.542;2023-08-06T00:39:55;28.00;;;26.10;;
2019;SDS011;1014;51.960;8.542;2023-08-06T00:42:22;26.30;;;24.80;;
2019;SDS011;1014;51.960;8.542;2023-08-06T00:44:52;25.97;;;24.50;;
2019;SDS011;1014;51.960;8.542;2023-08-06T00:47:19;26.00;;;24.57;;
2019;SDS011;1014;51.960;8.542;2023-08-06T00:49:49;25.83;;;24.33;;
2019;SDS011;1014;51.960;8.542;2023-08-06T00:52:18;26.10;;;24.47;;
2019;SDS011;1014;51.960;8.542;2023-08-06T00:54:45;25.03;;;23.73;;
2019;SDS011;1014;51.960;8.542;2023-08-06T00:57:13;24.40;;;23.20;;
2019;SDS011;1014;51.960;8.542;2023-08-06T00:59:40;25.77;;;24.37;;
2019;SDS011;1014;51.960;8.542;2023-08-06T01:02:07;26.57;;;25.17;;
2019;SDS011;1014;51.960;8.542;2023-08-06T01:04:35;26.03;;;24.53;;
2019;SDS011;1014;51.960;8.542;2023-08-06T01:07:08;25.13;;;23.80;;
2019;SDS011;1014;51.960;8.542;2023-08-06T01:09:45;24.50;;;23.30;;
2019;SDS011;1014;51.960;8.542;2023-08-06T01:12:18;25.47;;;24.07;;
2019;SDS011;1014;51.960;8.542;2023-08-06T01:14:48;25.83;;;24.53;;
2019;SDS011;1014;51.960;8.542;2023-08-06T01:17:17;24.60;;;23.20;;
2019;SDS011;1014;51.960;8.542;2023-08-06T01:19:44;24.93;;;23.47;;
2019;SDS011;1014;51.960;8.542;2023-08-06T01:22:13;25.37;;;23.87;;
2019;SDS011;1014;51.960;8.542;2023-08-06T01:24:43;24.10;;;22.70;;
2019;SDS011;1014;51.960;8.542;2023-08-06T01:27:14;23.90;;;22.70;;
2019;SDS011;1014;51.960;8.542;2023-08-06T01:29:44;25.53;;;24.13;;
2019;SDS011;1014;51.960;8.542;2023-08-06T01:32:12;25.30;;;23.97;;
2019;SDS011;1014;51.960;8.542;2023-08-06T01:34:41;23.90;;;22.70;;
2019;SDS011;1014;51.960;8.542;2023-08-06T01:37:10;23.07;;;21.87;;
2019;SDS011;1014;51.960;8.542;2023-08-06T01:39:41;24.73;;;23.47;;
2019;SDS011;1014;51.960;8.542;2023-08-06T01:42:13;23.87;;;22.57;;
2019;SDS011;1014;51.960;8.542;2023-08-06T01:44:43;22.33;;;21.13;;
2019;SDS011;1014;51.960;8.542;2023-08-06T01:47:10;24.47;;;23.17;;
2019;SDS011;1014;51.960;8.542;2023-08-06T01:49:40;23.60;;;22.27;;
2019;SDS011;1014;51.960;8.542;2023-08-06T01:52:07;25.30;;;23.90;;
2019;SDS011;1014;51.960;8.542;2023-08-06T01:54:34;24.03;;;22.73;;
2019;SDS011;1014;51.960;8.542;2023-08-06T01:57:03;26.40;;;24.90;;
2019;SDS011;1014;51.960;8.542;2023-08-06T01:59:30;24.37;;;23.17;;
2019;SDS011;1014;51.960;8.542;2023-08-06T02:01:58;26.13;;;24.43;;
2019;SDS011;1014;51.960;8.542;2023-08-06T02:04:25;25.33;;;23.93;;
2019;SDS011;1014;51.960;8.542;2023-08-06T02:06:53;25.90;;;24.60;;
2019;SDS011;1014;51.960;8.542;2023-08-06T02:09:24;25.97;;;24.30;;
2019;SDS011;1014;51.960;8.542;2023-08-06T02:11:51;25.50;;;24.03;;
2019;SDS011;1014;51.960;8.542;2023-08-06T02:14:21;26.10;;;24.30;;
2019;SDS011;1014;51.960;8.542;2023-08-06T02:16:48;27.37;;;25.77;;
2019;SDS011;1014;51.960;8.542;2023-08-06T02:19:15;25.50;;;24.10;;
2019;SDS011;1014;51.960;8.542;2023-08-06T02:21:46;25.43;;;24.13;;
2019;SDS011;1014;51.960;8.542;2023-08-06T02:24:19;26.97;;;25.33;;
2019;SDS011;1014;51.960;8.542;2023-08-06T02:26:52;26.73;;;25.03;;
2019;SDS011;1014;51.960;8.542;2023-08-06T02:29:22;25.53;;;23.93;;
2019;SDS011;1014;51.960;8.542;2023-08-06T02:31:49;25.47;;;24.07;;
2019;SDS011;1014;51.960;8.542;2023-08-06T02:34:21;25.43;;;24.13;;
2019;SDS011;1014;51.960;8.542;2023-08-06T02:36:49;25.97;;;24.67;;
2019;SDS011;1014;51.960;8.542;2023-08-06T02:39:19;25.63;;;24.13;;
2019;SDS011;1014;51.960;8.542;2023-08-06T02:41:48;24.90;;;23.50;;
2019;SDS011;1014;51.960;8.542;2023-08-06T02:44:15;27.03;;;25.63;;
2019;SDS011;1014;51.960;8.542;2023-08-06T02:46:45;26.70;;;25.07;;
2019;SDS011;1014;51.960;8.542;2023-08-06T02:49:13;27.17;;;25.47;;
2019;SDS011;1014;51.960;8.542;2023-08-06T02:51:54;26.27;;;24.67;;
2019;SDS011;1014;51.960;8.542;2023-08-06T02:54:22;26.57;;;25.17;;
2019;SDS011;1014;51.960;8.542;2023-08-06T02:56:50;26.40;;;24.87;;
2019;SDS011;1014;51.960;8.542;2023-08-06T02:59:17;25.70;;;24.40;;
2019;SDS011;1014;51.960;8.542;2023-08-06T03:01:50;27.13;;;25.43;;
2019;SDS011;1014;51.960;8.542;2023-08-06T03:04:17;24.90;;;23.60;;
2019;SDS011;1014;51.960;8.542;2023-08-06T03:06:45;24.83;;;23.43;;
2019;SDS011;1014;51.960;8.542;2023-08-06T03:09:34;25.73;;;24.20;;
2019;SDS011;1014;51.960;8.542;2023-08-06T03:12:01;25.70;;;23.77;;
2019;SDS011;1014;51.960;8.542;2023-08-06T03:14:29;25.60;;;24.30;;
2019;SDS011;1014;51.960;8.542;2023-08-06T03:17:03;24.93;;;23.53;;
2019;SDS011;1014;51.960;8.542;2023-08-06T03:19:30;25.23;;;23.93;;
2019;SDS011;1014;51.960;8.542;2023-08-06T03:22:00;25.73;;;24.33;;
2019;SDS011;1014;51.960;8.542;2023-08-06T03:24:27;25.10;;;23.70;;
2019;SDS011;1014;51.960;8.542;2023-08-06T03:26:55;24.60;;;23.03;;
2019;SDS011;1014;51.960;8.542;2023-08-06T03:29:25;24.30;;;23.10;;
2019;SDS011;1014;51.960;8.542;2023-08-06T03:31:52;24.60;;;23.30;;
2019;SDS011;1014;51.960;8.542;2023-08-06T03:34:21;25.80;;;24.30;;
2019;SDS011;1014;51.960;8.542;2023-08-06T03:36:51;25.07;;;23.63;;
2019;SDS011;1014;51.960;8.542;2023-08-06T03:39:19;24.90;;;23.50;;
2019;SDS011;1014;51.960;8.542;2023-08-06T03:41:52;26.30;;;24.90;;
2019;SDS011;1014;51.960;8.542;2023-08-06T03:44:22;25.30;;;24.00;;
2019;SDS011;1014;51.960;8.542;2023-08-06T03:46:49;25.90;;;24.60;;
2019;SDS011;1014;51.960;8.542;2023-08-06T03:49:16;25.50;;;24.00;;
2019;SDS011;1014;51.960;8.542;2023-08-06T03:51:45;25.43;;;24.03;;
2019;SDS011;1014;51.960;8.542;2023-08-06T03:54:12;25.37;;;24.07;;
2019;SDS011;1014;51.960;8.542;2023-08-06T03:56:39;25.30;;;23.90;;
2019;SDS011;1014;51.960;8.542;2023-08-06T03:59:10;25.57;;;24.17;;
2019;SDS011;1014;51.960;8.542;2023-08-06T04:01:37;24.77;;;23.47;;
2019;SDS011;1014;51.960;8.542;2023-08-06T04:04:04;24.00;;;22.60;;
2019;SDS011;1014;51.960;8.542;2023-08-06T04:06:32;25.20;;;23.57;;
2019;SDS011;1014;51.960;8.542;2023-08-06T04:09:04;24.67;;;23.37;;
2019;SDS011;1014;51.960;8.542;2023-08-06T04:11:31;25.47;;;23.97;;
2019;SDS011;1014;51.960;8.542;2023-08-06T04:13:58;24.17;;;22.83;;
2019;SDS011;1014;51.960;8.542;2023-08-06T04:16:29;23.77;;;22.60;;
2019;SDS011;1014;51.960;8.542;2023-08-06T04:18:56;24.77;;;23.47;;
2019;SDS011;1014;51.960;8.542;2023-08-06T04:21:26;23.57;;;22.27;;
2019;SDS011;1014;51.960;8.542;2023-08-06T04:23:56;23.10;;;21.80;;
2019;SDS011;1014;51.960;8.542;2023-08-06T04:26:30;24.47;;;22.83;;
2019;SDS011;1014;51.960;8.542;2023-08-06T04:28:58;24.50;;;23.10;;
2019;SDS011;1014;51.960;8.542;2023-08-06T04:31:25;24.17;;;22.80;;
2019;SDS011;1014;51.960;8.542;2023-08-06T04:33:56;23.10;;;21.90;;
2019;SDS011;1014;51.960;8.542;2023-08-06T04:36:26;24.27;;;23.07;;
2019;SDS011;1014;51.960;8.542;2023-08-06T04:38:54;25.43;;;24.03;;
2019;SDS011;1014;51.960;8.542;2023-08-06T04:41:23;24.27;;;22.77;;
2019;SDS011;1014;51.960;8.542;2023-08-06T04:43:54;23.17;;;22.07;;
2019;SDS011;1014;51.960;8.542;2023-08-06T04:46:30;23.30;;;21.80;;
2019;SDS011;1014;51.960;8.542;2023-08-06T04:49:00;23.90;;;22.50;;
2019;SDS011;1014;51.960;8.542;2023-08-06T04:51:29;22.80;;;21.60;;
2019;SDS011;1014;51.960;8.542;2023-08-06T04:54:01;23.13;;;21.87;;
2019;SDS011;1014;51.960;8.542;2023-08-06T04:56:31;22.90;;;21.40;;
2019;SDS011;1014;51.960;8.542;2023-08-06T04:59:00;22.93;;;21.80;;
2019;SDS011;1014;51.960;8.542;2023-08-06T05:01:27;22.70;;;21.30;;
2019;SDS011;1014;51.960;8.542;2023-08-06T05:03:54;22.03;;;20.60;;
2019;SDS011;1014;51.960;8.542;2023-08-06T05:06:22;22.23;;;20.93;;
2019;SDS011;1014;51.960;8.542;2023-08-06T05:08:58;22.97;;;21.77;;
2019;SDS011;1014;51.960;8.542;2023-08-06T05:11:29;23.70;;;22.50;;
2019;SDS011;1014;51.960;8.542;2023-08-06T05:13:56;24.60;;;23.17;;
2019;SDS011;1014;51.960;8.542;2023-08-06T05:16:26;23.57;;;22.23;;
2019;SDS011;1014;51.960;8.542;2023-08-06T05:18:53;22.57;;;21.37;;
2019;SDS011;1014;51.960;8.542;2023-08-06T05:21:23;23.17;;;21.87;;
2019;SDS011;1014;51.960;8.542;2023-08-06T05:23:50;22.50;;;21.27;;
2019;SDS011;1014;51.960;8.542;2023-08-06T05:26:20;22.37;;;20.97;;
2019;SDS011;1014;51.960;8.542;2023-08-06T05:28:47;22.27;;;21.17;;
2019;SDS011;1014;51.960;8.542;2023-08-06T05:31:15;23.33;;;22.10;;
2019;SDS011;1014;51.960;8.542;2023-08-06T05:33:45;21.73;;;20.63;;
2019;SDS011;1014;51.960;8.542;2023-08-06T05:36:12;21.40;;;20.30;;
2019;SDS011;1014;51.960;8.542;2023-08-06T05:38:39;23.00;;;21.80;;
2019;SDS011;1014;51.960;8.542;2023-08-06T05:41:09;22.23;;;21.10;;
2019;SDS011;1014;51.960;8.542;2023-08-06T05:43:38;21.40;;;20.40;;
2019;SDS011;1014;51.960;8.542;2023-08-06T05:46:05;21.90;;;20.80;;
2019;SDS011;1014;51.960;8.542;2023-08-06T05:48:32;23.93;;;22.10;;
2019;SDS011;1014;51.960;8.542;2023-08-06T05:51:03;23.60;;;22.03;;
2019;SDS011;1014;51.960;8.542;2023-08-06T05:53:30;22.30;;;21.10;;
2019;SDS011;1014;51.960;8.542;2023-08-06T05:56:00;22.37;;;21.17;;
2019;SDS011;1014;51.960;8.542;2023-08-06T05:58:27;23.30;;;22.00;;
2019;SDS011;1014;51.960;8.542;2023-08-06T06:00:55;22.30;;;21.17;;
2019;SDS011;1014;51.960;8.542;2023-08-06T06:03:22;22.97;;;21.77;;
2019;SDS011;1014;51.960;8.542;2023-08-06T06:05:52;21.90;;;20.70;;
2019;SDS011;1014;51.960;8.542;2023-08-06T06:08:21;21.90;;;20.50;;
2019;SDS011;1014;51.960;8.542;2023-08-06T06:10:49;22.20;;;21.00;;
2019;SDS011;1014;51.960;8.542;2023-08-06T06:24:31;23.13;;;21.83;;
2019;SDS011;1014;51.960;8.542;2023-08-06T06:26:59;22.13;;;21.03;;
2019;SDS011;1014;51.960;8.542;2023-08-06T06:29:26;21.87;;;20.67;;
2019;SDS011;1014;51.960;8.542;2023-08-06T06:31:53;21.67;;;20.40;;
2019;SDS011;1014;51.960;8.542;2023-08-06T06:34:20;21.40;;;20.30;;
2019;SDS011;1014;51.960;8.542;2023-08-06T06:36:47;22.57;;;21.20;;
2019;SDS011;1014;51.960;8.542;2023-08-06T06:39:15;21.97;;;20.67;;
2019;SDS011;1014;51.960;8.542;2023-08-06T06:41:44;22.43;;;20.70;;
2019;SDS011;1014;51.960;8.542;2023-08-06T06:44:11;21.33;;;20.23;;
2019;SDS011;1014;51.960;8.542;2023-08-06T06:46:38;22.40;;;21.30;;
2019;SDS011;1014;51.960;8.542;2023-08-06T06:49:05;22.70;;;21.40;;
2019;SDS011;1014;51.960;8.542;2023-08-06T06:51:32;21.73;;;20.63;;
2019;SDS011;1014;51.960;8.542;2023-08-06T06:53:59;21.77;;;20.47;;
2019;SDS011;1014;51.960;8.542;2023-08-06T06:56:26;21.97;;;20.67;;
2019;SDS011;1014;51.960;8.542;2023-08-06T06:58:54;22.13;;;21.00;;
2019;SDS011;1014;51.960;8.542;2023-08-06T07:01:21;22.97;;;21.77;;
2019;SDS011;1014;51.960;8.542;2023-08-06T07:03:48;21.77;;;20.47;;
2019;SDS011;1014;51.960;8.542;2023-08-06T07:06:15;20.50;;;19.50;;
2019;SDS011;1014;51.960;8.542;2023-08-06T07:08:43;21.20;;;19.83;;
2019;SDS011;1014;51.960;8.542;2023-08-06T07:11:10;20.30;;;19.30;;
2019;SDS011;1014;51.960;8.542;2023-08-06T07:13:37;21.10;;;20.00;;
2019;SDS011;1014;51.960;8.542;2023-08-06T07:16:13;21.70;;;20.40;;
2019;SDS011;1014;51.960;8.542;2023-08-06T07:18:40;21.40;;;20.17;;
2019;SDS011;1014;51.960;8.542;2023-08-06T07:21:07;21.73;;;20.53;;
2019;SDS011;1014;51.960;8.542;2023-08-06T07:23:34;20.57;;;19.57;;
2019;SDS011;1014;51.960;8.542;2023-08-06T07:26:01;21.43;;;20.23;;
2019;SDS011;1014;51.960;8.542;2023-08-06T07:28:28;20.63;;;19.53;;
2019;SDS011;1014;51.960;8.542;2023-08-06T07:30:55;21.57;;;20.37;;
2019;SDS011;1014;51.960;8.542;2023-08-06T07:33:23;21.03;;;19.93;;
2019;SDS011;1014;51.960;8.542;2023-08-06T07:35:50;20.77;;;19.67;;
2019;SDS011;1014;51.960;8.542;2023-08-06T07:38:17;19.83;;;18.83;;
2019;SDS011;1014;51.960;8.542;2023-08-06T07:40:44;20.20;;;19.10;;
2019;SDS011;1014;51.960;8.542;2023-08-06T07:43:12;19.80;;;18.50;;
2019;SDS011;1014;51.960;8.542;2023-08-06T07:45:39;21.70;;;20.30;;
2019;SDS011;1014;51.960;8.542;2023-08-06T07:48:06;20.73;;;19.43;;
2019;SDS011;1014;51.960;8.542;2023-08-06T07:50:34;20.10;;;19.10;;
2019;SDS011;1014;51.960;8.542;2023-08-06T07:53:01;22.33;;;20.83;;
2019;SDS011;1014;51.960;8.542;2023-08-06T07:55:28;22.07;;;20.77;;
2019;SDS011;1014;51.960;8.542;2023-08-06T07:57:56;21.07;;;19.97;;
2019;SDS011;1014;51.960;8.542;2023-08-06T08:00:23;20.63;;;19.53;;
2019;SDS011;1014;51.960;8.542;2023-08-06T08:02:50;20.10;;;19.10;;
2019;SDS011;1014;51.960;8.542;2023-08-06T08:05:17;21.90;;;20.70;;
2019;SDS011;1014;51.960;8.542;2023-08-06T08:07:45;20.23;;;19.20;;
2019;SDS011;1014;51.960;8.542;2023-08-06T08:10:12;20.77;;;19.57;;
2019;SDS011;1014;51.960;8.542;2023-08-06T08:12:39;20.20;;;19.07;;
2019;SDS011;1014;51.960;8.542;2023-08-06T08:15:07;21.47;;;20.27;;
2019;SDS011;1014;51.960;8.542;2023-08-06T08:17:34;21.90;;;20.53;;
2019;SDS011;1014;51.960;8.542;2023-08-06T08:20:02;20.80;;;19.70;;
2019;SDS011;1014;51.960;8.542;2023-08-06T08:22:30;20.13;;;19.13;;
2019;SDS011;1014;51.960;8.542;2023-08-06T08:25:03;21.80;;;20.30;;
2019;SDS011;1014;51.960;8.542;2023-08-06T08:27:30;20.83;;;19.63;;
2019;SDS011;1014;51.960;8.542;2023-08-06T08:30:01;21.27;;;20.10;;
2019;SDS011;1014;51.960;8.542;2023-08-06T08:32:34;20.90;;;19.80;;
2019;SDS011;1014;51.960;8.542;2023-08-06T08:35:01;20.70;;;19.60;;
2019;SDS011;1014;51.960;8.542;2023-08-06T08:37:28;20.30;;;19.20;;
2019;SDS011;1014;51.960;8.542;2023-08-06T08:39:55;20.33;;;19.33;;
2019;SDS011;1014;51.960;8.542;2023-08-06T08:42:23;19.90;;;18.77;;
2019;SDS011;1014;51.960;8.542;2023-08-06T08:44:51;19.47;;;18.47;;
2019;SDS011;1014;51.960;8.542;2023-08-06T08:47:24;20.47;;;19.37;;
2019;SDS011;1014;51.960;8.542;2023-08-06T08:49:52;20.00;;;19.00;;
2019;SDS011;1014;51.960;8.542;2023-08-06T08:52:21;20.23;;;19.23;;
2019;SDS011;1014;51.960;8.542;2023-08-06T08:54:48;20.13;;;19.13;;
2019;SDS011;1014;51.960;8.542;2023-08-06T08:57:17;21.37;;;20.17;;
2019;SDS011;1014;51.960;8.542;2023-08-06T08:59:46;20.17;;;19.17;;
2019;SDS011;1014;51.960;8.542;2023-08-06T09:02:13;20.90;;;19.80;;
2019;SDS011;1014;51.960;8.542;2023-08-06T09:04:41;20.90;;;19.73;;
2019;SDS011;1014;51.960;8.542;2023-08-06T09:07:16;21.17;;;19.87;;
2019;SDS011;1014;51.960;8.542;2023-08-06T09:09:44;20.90;;;19.80;;
2019;SDS011;1014;51.960;8.542;2023-08-06T09:12:14;20.90;;;19.70;;
2019;SDS011;1014;51.960;8.542;2023-08-06T09:14:41;21.23;;;20.10;;
2019;SDS011;1014;51.960;8.542;2023-08-06T09:17:10;20.70;;;19.30;;
2019;SDS011;1014;51.960;8.542;2023-08-06T09:19:37;21.40;;;20.30;;
2019;SDS011;1014;51.960;8.542;2023-08-06T09:22:04;21.43;;;20.33;;
2019;SDS011;1014;51.960;8.542;2023-08-06T09:24:37;22.40;;;21.20;;
2019;SDS011;1014;51.960;8.542;2023-08-06T09:27:05;22.20;;;20.80;;
2019;SDS011;1014;51.960;8.542;2023-08-06T09:29:32;21.83;;;20.63;;
2019;SDS011;1014;51.960;8.542;2023-08-06T09:31:59;21.93;;;20.70;;
2019;SDS011;1014;51.960;8.542;2023-08-06T09:34:27;22.40;;;21.20;;
2019;SDS011;1014;51.960;8.542;2023-08-06T09:36:54;22.13;;;20.93;;
2019;SDS011;1014;51.960;8.542;2023-08-06T09:39:24;22.57;;;21.17;;
2019;SDS011;1014;51.960;8.542;2023-08-06T09:41:55;21.90;;;20.63;;
2019;SDS011;1014;51.960;8.542;2023-08-06T09:44:24;20.90;;;19.70;;
2019;SDS011;1014;51.960;8.542;2023-08-06T09:46:52;21.90;;;20.70;;
2019;SDS011;1014;51.960;8.542;2023-08-06T09:49:20;22.23;;;20.93;;
2019;SDS011;1014;51.960;8.542;2023-08-06T09:51:48;21.13;;;19.93;;
2019;SDS011;1014;51.960;8.542;2023-08-06T09:54:20;21.83;;;20.53;;
2019;SDS011;1014;51.960;8.542;2023-08-06T09:56:47;20.83;;;19.70;;
2019;SDS011;1014;51.960;8.542;2023-08-06T09:59:15;22.50;;;20.80;;
2019;SDS011;1014;51.960;8.542;2023-08-06T10:01:42;20.97;;;19.87;;
2019;SDS011;1014;51.960;8.542;2023-08-06T10:04:09;21.10;;;20.00;;
2019;SDS011;1014;51.960;8.542;2023-08-06T10:06:37;21.30;;;20.10;;
2019;SDS011;1014;51.960;8.542;2023-08-06T10:09:05;20.47;;;19.47;;
2019;SDS011;1014;51.960;8.542;2023-08-06T10:11:33;21.10;;;19.90;;
2019;SDS011;1014;51.960;8.542;2023-08-06T10:14:02;20.77;;;19.67;;
2019;SDS011;1014;51.960;8.542;2023-08-06T10:16:30;21.53;;;20.43;;
2019;SDS011;1014;51.960;8.542;2023-08-06T10:18:58;20.63;;;19.40;;
2019;SDS011;1014;51.960;8.542;2023-08-06T10:21:26;21.37;;;20.27;;
2019;SDS011;1014;51.960;8.542;2023-08-06T10:23:55;21.43;;;20.33;;
2019;SDS011;1014;51.960;8.542;2023-08-06T10:26:26;20.80;;;19.70;;
2019;SDS011;1014;51.960;8.542;2023-08-06T10:28:53;22.67;;;21.37;;
2019;SDS011;1014;51.960;8.542;2023-08-06T10:31:28;22.13;;;20.93;;
2019;SDS011;1014;51.960;8.542;2023-08-06T10:34:16;21.73;;;20.47;;
2019;SDS011;1014;51.960;8.542;2023-08-06T10:36:44;21.43;;;20.33;;
2019;SDS011;1014;51.960;8.542;2023-08-06T10:39:13;21.37;;;20.27;;
2019;SDS011;1014;51.960;8.542;2023-08-06T10:41:42;21.00;;;19.90;;
2019;SDS011;1014;51.960;8.542;2023-08-06T10:44:10;21.53;;;20.43;;
2019;SDS011;1014;51.960;8.542;2023-08-06T10:46:37;21.40;;;20.20;;
2019;SDS011;1014;51.960;8.542;2023-08-06T10:49:05;21.00;;;19.80;;
2019;SDS011;1014;51.960;8.542;2023-08-06T10:51:32;22.33;;;21.00;;
2019;SDS011;1014;51.960;8.542;2023-08-06T10:53:59;21.40;;;20.20;;
2019;SDS011;1014;51.960;8.542;2023-08-06T10:56:26;21.40;;;20.20;;
2019;SDS011;1014;51.960;8.542;2023-08-06T10:58:55;21.30;;;20.20;;
2019;SDS011;1014;51.960;8.542;2023-08-06T11:01:22;21.43;;;20.03;;
2019;SDS011;1014;51.960;8.542;2023-08-06T11:03:49;20.47;;;19.27;;
2019;SDS011;1014;51.960;8.542;2023-08-06T11:06:18;20.50;;;19.40;;
2019;SDS011;1014;51.960;8.542;2023-08-06T11:08:47;21.50;;;20.30;;
2019;SDS011;1014;51.960;8.542;2023-08-06T11:11:14;21.33;;;20.23;;
2019;SDS011;1014;51.960;8.542;2023-08-06T11:13:42;21.70;;;20.30;;
2019;SDS011;1014;51.960;8.542;2023-08-06T11:16:12;22.57;;;21.30;;
2019;SDS011;1014;51.960;8.542;2023-08-06T11:18:39;22.83;;;21.30;;
2019;SDS011;1014;51.960;8.542;2023-08-06T11:21:07;22.70;;;21.30;;
2019;SDS011;1014;51.960;8.542;2023-08-06T11:23:34;22.23;;;20.83;;
2019;SDS011;1014;51.960;8.542;2023-08-06T11:26:01;22.40;;;21.07;;
2019;SDS011;1014;51.960;8.542;2023-08-06T11:28:28;21.70;;;20.60;;
2019;SDS011;1014;51.960;8.542;2023-08-06T11:30:56;21.77;;;20.67;;
2019;SDS011;1014;51.960;8.542;2023-08-06T11:33:27;23.00;;;21.80;;
2019;SDS011;1014;51.960;8.542;2023-08-06T11:35:55;22.50;;;21.40;;
2019;SDS011;1014;51.960;8.542;2023-08-06T11:38:24;21.70;;;20.50;;
2019;SDS011;1014;51.960;8.542;2023-08-06T11:40:52;21.60;;;20.50;;
2019;SDS011;1014;51.960;8.542;2023-08-06T11:43:19;22.60;;;21.20;;
2019;SDS011;1014;51.960;8.542;2023-08-06T11:45:47;21.67;;;20.47;;
2019;SDS011;1014;51.960;8.542;2023-08-06T11:48:14;22.50;;;21.30;;
2019;SDS011;1014;51.960;8.542;2023-08-06T11:50:44;22.57;;;21.43;;
2019;SDS011;1014;51.960;8.542;2023-08-06T11:53:12;23.63;;;22.33;;
2019;SDS011;1014;51.960;8.542;2023-08-06T11:55:39;22.47;;;21.27;;
2019;SDS011;1014;51.960;8.542;2023-08-06T11:58:06;21.97;;;20.77;;
2019;SDS011;1014;51.960;8.542;2023-08-06T12:00:33;22.50;;;21.20;;
2019;SDS011;1014;51.960;8.542;2023-08-06T12:03:00;22.67;;;21.47;;
2019;SDS011;1014;51.960;8.542;2023-08-06T12:05:31;22.07;;;20.87;;
2019;SDS011;1014;51.960;8.542;2023-08-06T12:08:00;23.00;;;21.70;;
2019;SDS011;1014;51.960;8.542;2023-08-06T12:10:28;23.60;;;22.30;;
2019;SDS011;1014;51.960;8.542;2023-08-06T12:12:55;23.03;;;21.73;;
2019;SDS011;1014;51.960;8.542;2023-08-06T12:15:23;22.37;;;21.17;;
2019;SDS011;1014;51.960;8.542;2023-08-06T12:17:50;22.30;;;21.10;;
2019;SDS011;1014;51.960;8.542;2023-08-06T12:20:17;21.10;;;20.00;;
2019;SDS011;1014;51.960;8.542;2023-08-06T12:22:44;22.10;;;20.90;;
2019;SDS011;1014;51.960;8.542;2023-08-06T12:25:13;22.53;;;21.33;;
2019;SDS011;1014;51.960;8.542;2023-08-06T12:27:40;22.27;;;21.07;;
2019;SDS011;1014;51.960;8.542;2023-08-06T12:30:07;21.40;;;20.20;;
2019;SDS011;1014;51.960;8.542;2023-08-06T12:32:34;22.77;;;21.47;;
2019;SDS011;1014;51.960;8.542;2023-08-06T12:35:01;21.53;;;20.37;;
2019;SDS011;1014;51.960;8.542;2023-08-06T12:37:29;21.77;;;20.57;;
2019;SDS011;1014;51.960;8.542;2023-08-06T12:39:56;21.13;;;19.93;;
2019;SDS011;1014;51.960;8.542;2023-08-06T12:42:25;21.60;;;20.20;;
2019;SDS011;1014;51.960;8.542;2023-08-06T12:44:52;21.60;;;20.40;;
2019;SDS011;1014;51.960;8.542;2023-08-06T12:47:19;21.40;;;20.20;;
2019;SDS011;1014;51.960;8.542;2023-08-06T12:49:46;21.93;;;20.73;;
2019;SDS011;1014;51.960;8.542;2023-08-06T12:52:14;20.60;;;19.30;;
2019;SDS011;1014;51.960;8.542;2023-08-06T12:54:41;20.83;;;19.63;;
2019;SDS011;1014;51.960;8.542;2023-08-06T12:57:12;21.10;;;19.90;;
2019;SDS011;1014;51.960;8.542;2023-08-06T12:59:41;21.50;;;20.30;;
2019;SDS011;1014;51.960;8.542;2023-08-06T13:02:08;22.00;;;20.60;;
2019;SDS011;1014;51.960;8.542;2023-08-06T13:04:35;21.50;;;20.30;;
2019;SDS011;1014;51.960;8.542;2023-08-06T13:07:02;22.23;;;21.03;;
2019;SDS011;1014;51.960;8.542;2023-08-06T13:09:31;23.30;;;21.60;;
2019;SDS011;1014;51.960;8.542;2023-08-06T13:11:58;21.97;;;20.77;;
2019;SDS011;1014;51.960;8.542;2023-08-06T13:14:30;22.57;;;21.37;;
2019;SDS011;1014;51.960;8.542;2023-08-06T13:16:58;22.30;;;21.00;;
2019;SDS011;1014;51.960;8.542;2023-08-06T13:19:25;22.67;;;21.37;;
2019;SDS011;1014;51.960;8.542;2023-08-06T13:21:59;22.67;;;21.37;;
2019;SDS011;1014;51.960;8.542;2023-08-06T13:24:27;22.70;;;21.40;;
2019;SDS011;1014;51.960;8.542;2023-08-06T13:26:54;22.87;;;21.67;;
2019;SDS011;1014;51.960;8.542;2023-08-06T13:29:21;22.00;;;20.80;;
2019;SDS011;1014;51.960;8.542;2023-08-06T13:31:48;22.07;;;20.60;;
2019;SDS011;1014;51.960;8.542;2023-08-06T13:34:17;21.03;;;19.83;;
2019;SDS011;1014;51.960;8.542;2023-08-06T13:36:47;20.53;;;19.43;;
2019;SDS011;1014;51.960;8.542;2023-08-06T13:39:14;23.40;;;21.63;;
2019;SDS011;1014;51.960;8.542;2023-08-06T13:41:42;22.30;;;20.90;;
2019;SDS011;1014;51.960;8.542;2023-08-06T13:44:09;22.20;;;21.00;;
2019;SDS011;1014;51.960;8.542;2023-08-06T13:46:39;21.83;;;20.63;;
2019;SDS011;1014;51.960;8.542;2023-08-06T13:49:06;22.03;;;20.43;;
2019;SDS011;1014;51.960;8.542;2023-08-06T13:51:34;22.27;;;20.97;;
2019;SDS011;1014;51.960;8.542;2023-08-06T13:54:01;22.10;;;20.80;;
2019;SDS011;1014;51.960;8.542;2023-08-06T13:56:28;22.53;;;21.23;;
2019;SDS011;1014;51.960;8.542;2023-08-06T13:58:56;23.40;;;21.90;;
2019;SDS011;1014;51.960;8.542;2023-08-06T14:01:23;23.77;;;22.20;;
2019;SDS011;1014;51.960;8.542;2023-08-06T14:03:50;22.77;;;21.40;;
2019;SDS011;1014;51.960;8.542;2023-08-06T14:06:18;24.60;;;23.13;;
2019;SDS011;1014;51.960;8.542;2023-08-06T14:08:46;26.80;;;25.20;;
2019;SDS011;1014;51.960;8.542;2023-08-06T14:11:14;28.97;;;26.53;;
2019;SDS011;1014;51.960;8.542;2023-08-06T14:13:41;69.87;;;47.23;;
2019;SDS011;1014;51.960;8.542;2023-08-06T14:16:08;164.73;;;64.80;;
2019;SDS011;1014;51.960;8.542;2023-08-06T14:18:35;72.00;;;59.93;;
2019;SDS011;1014;51.960;8.542;2023-08-06T14:21:03;66.77;;;56.90;;
2019;SDS011;1014;51.960;8.542;2023-08-06T14:23:30;81.43;;;50.47;;
2019;SDS011;1014;51.960;8.542;2023-08-06T14:25:58;103.67;;;50.07;;
2019;SDS011;1014;51.960;8.542;2023-08-06T14:28:25;147.77;;;46.87;;
2019;SDS011;1014;51.960;8.542;2023-08-06T14:30:52;55.67;;;39.47;;
2019;SDS011;1014;51.960;8.542;2023-08-06T14:33:20;37.80;;;34.97;;
2019;SDS011;1014;51.960;8.542;2023-08-06T14:35:47;38.80;;;35.00;;
2019;SDS011;1014;51.960;8.542;2023-08-06T14:38:14;36.73;;;33.70;;
2019;SDS011;1014;51.960;8.542;2023-08-06T14:40:43;45.70;;;34.40;;
2019;SDS011;1014;51.960;8.542;2023-08-06T14:43:11;36.17;;;33.47;;
2019;SDS011;1014;51.960;8.542;2023-08-06T14:45:38;34.90;;;32.43;;
2019;SDS011;1014;51.960;8.542;2023-08-06T14:48:05;33.67;;;31.17;;
2019;SDS011;1014;51.960;8.542;2023-08-06T14:50:32;32.87;;;30.47;;
2019;SDS011;1014;51.960;8.542;2023-08-06T14:53:00;36.13;;;33.63;;
2019;SDS011;1014;51.960;8.542;2023-08-06T14:55:27;33.50;;;31.00;;
2019;SDS011;1014;51.960;8.542;2023-08-06T14:57:55;33.33;;;30.63;;
2019;SDS011;1014;51.960;8.542;2023-08-06T15:00:23;37.13;;;34.33;;
2019;SDS011;1014;51.960;8.542;2023-08-06T15:02:50;37.70;;;34.77;;
2019;SDS011;1014;51.960;8.542;2023-08-06T15:05:17;35.93;;;33.37;;
2019;SDS011;1014;51.960;8.542;2023-08-06T15:07:44;35.43;;;32.73;;